createdAt,value
2022-10-31T00:01:30.851Z,56.50
2022-10-31T00:03:58.093Z,50.30
2022-10-31T00:06:25.631Z,52.20
2022-10-31T00:08:59.836Z,58.57
2022-10-31T00:11:27.311Z,51.00
2022-10-31T00:13:54.986Z,57.67
2022-10-31T00:16:23.221Z,58.30
2022-10-31T00:18:50.933Z,54.07
2022-10-31T00:21:18.138Z,50.40
2022-10-31T00:23:45.465Z,53.30
2022-10-31T00:26:12.566Z,60.77
2022-10-31T00:28:39.834Z,60.87
2022-10-31T00:31:08.221Z,61.80
2022-10-31T00:33:39.508Z,57.30
2022-10-31T00:36:07.538Z,58.37
2022-10-31T00:38:34.965Z,56.80
2022-10-31T00:41:02.070Z,66.97
2022-10-31T00:43:29.260Z,62.30
2022-10-31T00:45:56.518Z,62.83
2022-10-31T00:48:23.596Z,58.23
2022-10-31T00:50:50.700Z,61.00
2022-10-31T00:53:17.839Z,61.50
2022-10-31T00:55:45.004Z,62.57
2022-10-31T00:58:12.176Z,65.87
2022-10-31T01:00:39.334Z,62.63
2022-10-31T01:03:06.433Z,64.03
2022-10-31T01:05:33.592Z,64.07
2022-10-31T01:08:00.995Z,65.37
2022-10-31T01:10:28.137Z,73.87
2022-10-31T01:12:55.244Z,65.70
2022-10-31T01:15:23.023Z,64.40
2022-10-31T01:17:50.483Z,66.67
2022-10-31T01:20:17.893Z,75.27
2022-10-31T01:22:45.472Z,73.03
2022-10-31T01:25:13.578Z,66.20
2022-10-31T01:27:41.296Z,65.43
2022-10-31T01:30:09.300Z,66.53
2022-10-31T01:32:37.169Z,81.10
2022-10-31T01:35:04.865Z,72.73
2022-10-31T01:37:33.319Z,67.97
2022-10-31T01:40:00.492Z,62.23
2022-10-31T01:42:27.584Z,60.37
2022-10-31T01:44:56.653Z,67.87
2022-10-31T01:47:29.319Z,65.00
2022-10-31T01:49:58.443Z,69.53
2022-10-31T01:52:26.588Z,66.03
2022-10-31T01:54:56.362Z,65.47
2022-10-31T01:57:23.696Z,64.93
2022-10-31T01:59:53.005Z,64.90
2022-10-31T02:02:20.705Z,65.80
2022-10-31T02:04:49.108Z,62.07
2022-10-31T02:07:27.589Z,60.37
2022-10-31T02:09:55.527Z,68.73
2022-10-31T02:12:23.106Z,63.10
2022-10-31T02:14:50.200Z,65.83
2022-10-31T02:17:17.351Z,71.00
2022-10-31T02:20:03.114Z,72.17
2022-10-31T02:22:30.224Z,67.47
2022-10-31T02:25:04.404Z,104.70
2022-10-31T02:27:37.829Z,107.70
2022-10-31T02:30:07.029Z,100.37
2022-10-31T02:32:45.021Z,77.27
2022-10-31T02:35:12.199Z,74.10
2022-10-31T02:37:43.390Z,69.37
2022-10-31T02:40:20.250Z,65.10
2022-10-31T02:42:53.411Z,76.13
2022-10-31T02:45:28.602Z,64.97
2022-10-31T02:47:58.135Z,70.27
2022-10-31T02:50:29.035Z,66.43
2022-10-31T02:52:56.185Z,65.83
2022-10-31T02:55:26.354Z,75.90
2022-10-31T02:57:56.003Z,79.90
2022-10-31T03:00:23.383Z,68.87
2022-10-31T03:02:58.277Z,74.63
2022-10-31T03:05:34.394Z,91.20
2022-10-31T03:08:10.308Z,82.00
2022-10-31T03:10:40.161Z,89.57
2022-10-31T03:13:11.011Z,82.17
2022-10-31T03:15:45.113Z,87.33
2022-10-31T03:18:19.610Z,79.87
2022-10-31T03:20:52.314Z,79.93
2022-10-31T03:23:20.814Z,76.67
2022-10-31T03:25:48.505Z,75.53
2022-10-31T03:30:45.698Z,71.73
2022-10-31T03:33:16.655Z,79.87
2022-10-31T03:35:46.061Z,72.37
2022-10-31T03:38:13.439Z,76.77
2022-10-31T03:40:42.705Z,69.60
2022-10-31T03:43:12.487Z,71.40
2022-10-31T03:45:43.239Z,70.23
2022-10-31T03:48:10.565Z,65.63
2022-10-31T03:50:41.112Z,82.33
2022-10-31T03:53:12.675Z,64.60
2022-10-31T03:55:42.311Z,61.27
2022-10-31T03:58:14.165Z,54.20
2022-10-31T04:00:42.615Z,60.43
2022-10-31T04:03:28.944Z,63.40
2022-10-31T04:05:58.504Z,75.83
2022-10-31T04:08:28.142Z,88.43
2022-10-31T04:10:56.083Z,112.97
2022-10-31T04:13:26.153Z,93.63
2022-10-31T04:15:54.086Z,66.17
2022-10-31T04:18:21.267Z,72.73
2022-10-31T04:20:51.798Z,67.57
2022-10-31T04:23:18.947Z,62.37
2022-10-31T04:25:46.100Z,69.07
2022-10-31T04:28:13.243Z,190.13
2022-10-31T04:30:40.395Z,100.63
2022-10-31T04:33:07.499Z,74.60
2022-10-31T04:35:34.584Z,77.60
2022-10-31T04:38:01.686Z,101.77
2022-10-31T04:40:28.900Z,75.50
2022-10-31T04:42:56.018Z,62.07
2022-10-31T04:45:23.119Z,71.30
2022-10-31T04:47:50.205Z,62.53
2022-10-31T04:50:17.361Z,61.57
2022-10-31T04:52:45.169Z,61.40
2022-10-31T04:55:12.920Z,65.37
2022-10-31T04:57:43.503Z,96.77
2022-10-31T05:00:11.675Z,82.03
2022-10-31T05:02:45.759Z,92.57
2022-10-31T05:05:13.393Z,125.33
2022-10-31T05:07:44.399Z,197.77
2022-10-31T05:10:12.608Z,100.13
2022-10-31T05:12:40.025Z,109.23
2022-10-31T05:15:07.413Z,199.93
2022-10-31T05:17:34.564Z,119.10
2022-10-31T05:20:01.770Z,169.07
2022-10-31T05:22:28.868Z,207.40
2022-10-31T05:24:55.983Z,211.73
2022-10-31T05:27:23.231Z,91.17
2022-10-31T05:29:50.361Z,80.40
2022-10-31T05:32:17.562Z,229.87
2022-10-31T05:34:44.665Z,213.40
2022-10-31T05:37:11.789Z,80.23
2022-10-31T05:39:38.889Z,52.80
2022-10-31T05:42:06.014Z,63.43
2022-10-31T05:44:33.238Z,60.57
2022-10-31T05:47:00.319Z,68.37
2022-10-31T05:49:27.402Z,54.60
2022-10-31T05:51:54.969Z,58.97
2022-10-31T05:54:22.141Z,52.90
2022-10-31T05:56:49.322Z,50.60
2022-10-31T05:59:16.413Z,50.23
2022-10-31T06:01:43.569Z,46.77
2022-10-31T06:04:10.762Z,45.20
2022-10-31T06:06:37.862Z,43.97
2022-10-31T06:09:05.061Z,44.63
2022-10-31T06:11:32.136Z,44.83
2022-10-31T06:13:59.283Z,40.53
2022-10-31T06:16:26.414Z,48.77
2022-10-31T06:18:53.511Z,47.57
2022-10-31T06:21:20.630Z,45.37
2022-10-31T06:23:47.785Z,49.30
2022-10-31T06:26:15.101Z,45.63
2022-10-31T06:28:42.214Z,43.67
2022-10-31T06:31:09.319Z,43.53
2022-10-31T06:33:36.461Z,46.87
2022-10-31T06:36:03.843Z,46.10
2022-10-31T06:38:30.960Z,47.03
2022-10-31T06:40:58.114Z,52.00
2022-10-31T06:43:25.267Z,67.67
2022-10-31T06:45:52.384Z,63.80
2022-10-31T06:48:19.856Z,70.83
2022-10-31T06:50:47.275Z,97.17
2022-10-31T06:53:15.274Z,99.27
2022-10-31T06:55:43.055Z,213.50
2022-10-31T06:58:11.245Z,285.90
2022-10-31T07:00:38.719Z,269.00
2022-10-31T07:03:07.087Z,389.97
2022-10-31T07:05:34.251Z,314.30
2022-10-31T07:08:03.272Z,279.50
2022-10-31T07:10:34.385Z,294.10
2022-10-31T07:13:05.963Z,383.33
2022-10-31T07:15:37.519Z,93.90
2022-10-31T07:18:05.498Z,316.50
2022-10-31T07:20:33.041Z,150.63
2022-10-31T07:23:01.532Z,123.73
2022-10-31T07:25:29.125Z,172.97
2022-10-31T07:27:56.956Z,203.67
2022-10-31T07:30:24.398Z,213.60
2022-10-31T07:32:52.396Z,225.27
2022-10-31T07:35:29.308Z,82.47
2022-10-31T07:37:57.053Z,92.90
2022-10-31T07:40:25.253Z,156.60
2022-10-31T07:42:53.395Z,85.43
2022-10-31T07:45:21.431Z,56.37
2022-10-31T07:47:52.729Z,43.10
2022-10-31T07:50:30.712Z,55.13
2022-10-31T07:53:00.934Z,48.27
2022-10-31T07:55:28.592Z,72.07
2022-10-31T07:57:59.047Z,53.40
2022-10-31T08:00:26.821Z,48.53
2022-10-31T08:03:01.692Z,51.20
2022-10-31T08:05:29.269Z,52.13
2022-10-31T08:07:56.517Z,56.63
2022-10-31T08:10:24.106Z,41.27
2022-10-31T08:12:58.752Z,44.47
2022-10-31T08:15:26.215Z,48.87
2022-10-31T08:17:53.590Z,41.53
2022-10-31T08:20:21.118Z,40.70
2022-10-31T08:23:14.829Z,51.57
2022-10-31T08:25:43.242Z,38.07
2022-10-31T08:28:12.123Z,41.23
2022-10-31T08:30:39.990Z,36.07
2022-10-31T08:33:08.563Z,35.33
2022-10-31T08:35:35.796Z,40.10
2022-10-31T08:38:03.666Z,33.43
2022-10-31T08:40:33.180Z,37.23
2022-10-31T08:43:01.370Z,35.73
2022-10-31T08:45:28.847Z,34.67
2022-10-31T08:48:03.353Z,35.23
2022-10-31T08:50:31.518Z,30.70
2022-10-31T08:53:06.384Z,34.43
2022-10-31T08:55:37.065Z,26.63
2022-10-31T08:58:05.220Z,29.77
2022-10-31T09:00:32.977Z,31.13
2022-10-31T09:03:01.079Z,30.83
2022-10-31T09:05:28.868Z,32.33
2022-10-31T09:08:03.604Z,32.93
2022-10-31T09:10:31.494Z,31.57
2022-10-31T09:13:07.535Z,30.07
2022-10-31T09:15:36.039Z,29.80
2022-10-31T09:18:03.442Z,28.13
2022-10-31T09:20:31.001Z,26.93
2022-10-31T09:22:59.557Z,26.73
2022-10-31T09:25:27.069Z,23.47
2022-10-31T09:27:58.157Z,22.10
2022-10-31T09:30:26.612Z,24.77
2022-10-31T09:33:07.202Z,21.03
2022-10-31T09:35:34.642Z,23.90
2022-10-31T09:38:03.185Z,20.67
2022-10-31T09:40:33.241Z,17.70
2022-10-31T09:43:15.469Z,22.93
2022-10-31T09:45:49.495Z,24.33
2022-10-31T09:48:19.489Z,22.13
2022-10-31T09:50:59.419Z,21.27
2022-10-31T09:53:29.413Z,18.57
2022-10-31T09:55:56.771Z,22.48
2022-10-31T09:58:27.877Z,21.40
2022-10-31T10:00:56.141Z,21.20
2022-10-31T10:03:49.291Z,23.87
2022-10-31T10:06:16.364Z,22.00
2022-10-31T10:08:43.587Z,25.13
2022-10-31T10:11:22.773Z,23.33
2022-10-31T10:14:08.985Z,21.97
2022-10-31T10:16:38.890Z,22.77
2022-10-31T10:19:08.921Z,22.07
2022-10-31T10:21:45.623Z,20.13
2022-10-31T10:24:24.641Z,24.03
2022-10-31T10:26:57.686Z,18.33
2022-10-31T10:29:24.767Z,20.90
2022-10-31T10:31:53.437Z,16.53
2022-10-31T10:34:26.201Z,15.97
2022-10-31T10:36:53.264Z,17.47
2022-10-31T10:39:22.549Z,18.83
2022-10-31T10:42:09.575Z,16.10
2022-10-31T10:45:00.125Z,14.57
2022-10-31T10:47:38.197Z,18.33
2022-10-31T10:50:12.703Z,14.30
2022-10-31T10:52:50.793Z,15.63
2022-10-31T10:55:23.599Z,13.60
2022-10-31T10:57:51.252Z,14.33
2022-10-31T11:00:18.345Z,16.43
2022-10-31T11:02:48.886Z,11.97
2022-10-31T11:05:29.766Z,12.17
2022-10-31T11:07:57.055Z,15.27
2022-10-31T11:10:24.224Z,12.20
2022-10-31T11:13:10.058Z,11.57
2022-10-31T11:15:39.591Z,11.50
2022-10-31T11:18:06.858Z,11.50
2022-10-31T11:20:35.737Z,13.70
2022-10-31T11:23:15.783Z,11.80
2022-10-31T11:25:49.489Z,13.80
2022-10-31T11:28:16.640Z,14.37
2022-10-31T11:30:45.267Z,12.80
2022-10-31T11:33:20.746Z,11.27
2022-10-31T11:35:50.985Z,10.73
2022-10-31T11:38:21.791Z,12.83
2022-10-31T11:41:00.131Z,12.63
2022-10-31T11:43:28.405Z,13.47
2022-10-31T11:45:55.697Z,11.33
2022-10-31T11:48:24.886Z,12.10
2022-10-31T11:50:53.441Z,11.13
2022-10-31T11:53:22.942Z,12.33
2022-10-31T11:56:01.554Z,10.47
2022-10-31T11:58:28.772Z,12.33
2022-10-31T12:00:57.013Z,12.60
2022-10-31T12:03:24.143Z,13.20
2022-10-31T12:06:12.985Z,9.90
2022-10-31T12:08:41.294Z,13.50
2022-10-31T12:11:29.335Z,11.73
2022-10-31T12:14:15.162Z,11.33
2022-10-31T12:16:53.880Z,9.00
2022-10-31T12:19:26.878Z,9.60
2022-10-31T12:22:00.407Z,10.20
2022-10-31T12:24:42.456Z,9.87
2022-10-31T12:27:21.692Z,12.67
2022-10-31T12:30:12.092Z,13.93
2022-10-31T12:32:43.851Z,13.03
2022-10-31T12:35:10.915Z,10.70
2022-10-31T12:37:38.117Z,13.63
2022-10-31T12:40:05.206Z,13.53
2022-10-31T12:42:32.315Z,11.83
2022-10-31T12:45:11.712Z,12.10
2022-10-31T12:47:54.107Z,12.43
2022-10-31T12:50:27.343Z,9.33
2022-10-31T12:52:58.671Z,12.47
2022-10-31T12:55:25.982Z,11.80
2022-10-31T12:57:56.073Z,11.03
2022-10-31T13:00:26.549Z,13.83
2022-10-31T13:03:15.589Z,13.17
2022-10-31T13:05:44.043Z,13.27
2022-10-31T13:08:11.138Z,12.27
2022-10-31T13:10:46.556Z,14.53
2022-10-31T13:13:17.786Z,11.37
2022-10-31T13:15:57.534Z,14.83
2022-10-31T13:18:36.843Z,14.07
2022-10-31T13:21:07.119Z,13.87
2022-10-31T13:23:51.778Z,17.50
2022-10-31T13:26:33.683Z,13.50
2022-10-31T13:29:19.005Z,16.13
2022-10-31T13:31:46.289Z,15.13
2022-10-31T13:34:33.642Z,12.10
2022-10-31T13:37:03.886Z,13.40
2022-10-31T13:39:36.851Z,14.53
2022-10-31T13:42:17.455Z,13.00
2022-10-31T13:44:44.609Z,14.00
2022-10-31T13:47:30.905Z,15.97
2022-10-31T13:50:08.643Z,14.73
2022-10-31T13:52:35.858Z,12.50
2022-10-31T13:55:02.956Z,14.20
2022-10-31T13:57:45.698Z,14.30
2022-10-31T14:00:21.789Z,13.53
2022-10-31T14:02:50.343Z,13.43
2022-10-31T14:05:25.523Z,15.63
2022-10-31T14:07:53.838Z,12.57
2022-10-31T14:10:32.617Z,16.07
2022-10-31T14:13:18.861Z,15.63
2022-10-31T14:16:00.896Z,20.97
2022-10-31T14:18:33.037Z,27.50
2022-10-31T14:21:00.177Z,24.60
2022-10-31T14:23:27.277Z,90.17
2022-10-31T14:25:54.452Z,65.33
2022-10-31T14:28:34.846Z,226.30
2022-10-31T14:31:02.267Z,19.63
2022-10-31T14:33:30.319Z,124.53
2022-10-31T14:35:57.464Z,160.47
2022-10-31T14:38:36.932Z,72.77
2022-10-31T14:41:07.009Z,62.07
2022-10-31T14:44:03.173Z,110.87
2022-10-31T14:46:53.500Z,49.63
2022-10-31T14:49:43.862Z,59.90
2022-10-31T14:52:14.589Z,32.63
2022-10-31T14:54:43.513Z,105.80
2022-10-31T14:57:18.276Z,138.43
2022-10-31T14:59:49.909Z,76.37
2022-10-31T15:02:37.947Z,59.80
2022-10-31T15:05:14.160Z,47.23
2022-10-31T15:07:52.314Z,35.80
2022-10-31T15:10:27.456Z,57.57
2022-10-31T15:12:54.766Z,115.93
2022-10-31T15:15:23.485Z,140.53
2022-10-31T15:17:52.967Z,171.77
2022-10-31T15:20:22.243Z,82.10
2022-10-31T15:22:49.913Z,101.27
2022-10-31T15:25:21.253Z,26.50
2022-10-31T15:27:49.129Z,88.27
2022-10-31T15:30:22.609Z,48.43
2022-10-31T15:32:57.532Z,104.10
2022-10-31T15:35:29.683Z,77.47
2022-10-31T15:37:58.232Z,75.93
2022-10-31T15:40:26.633Z,210.17
2022-10-31T15:43:03.947Z,184.37
2022-10-31T15:45:31.712Z,179.97
2022-10-31T15:48:00.259Z,376.47
2022-10-31T15:50:39.157Z,109.57
2022-10-31T15:53:07.477Z,80.00
2022-10-31T15:55:38.289Z,354.83
2022-10-31T15:58:12.269Z,445.67
2022-10-31T16:00:39.823Z,323.60
2022-10-31T16:03:15.951Z,229.30
2022-10-31T16:05:45.922Z,160.63
2022-10-31T16:08:31.475Z,314.33
2022-10-31T16:10:58.571Z,115.67
2022-10-31T16:13:28.699Z,35.33
2022-10-31T16:16:21.269Z,42.93
2022-10-31T16:18:45.487Z,82.93
2022-10-31T16:21:13.051Z,204.17
2022-10-31T16:23:45.402Z,35.40
2022-10-31T16:26:15.932Z,58.33
2022-10-31T16:28:52.165Z,66.43
2022-10-31T16:31:27.891Z,150.30
2022-10-31T16:34:03.353Z,86.87
2022-10-31T16:36:36.458Z,102.30
2022-10-31T16:39:04.518Z,115.20
2022-10-31T16:41:31.673Z,45.47
2022-10-31T16:43:58.855Z,75.30
2022-10-31T16:46:27.292Z,160.63
2022-10-31T16:48:54.812Z,40.73
2022-10-31T16:51:22.061Z,37.17
2022-10-31T16:53:49.210Z,33.87
2022-10-31T16:56:18.099Z,37.27
2022-10-31T16:58:46.035Z,54.30
2022-10-31T17:01:14.430Z,37.27
2022-10-31T17:03:41.633Z,32.63
2022-10-31T17:06:12.395Z,47.00
2022-10-31T17:08:39.528Z,31.17
2022-10-31T17:11:06.873Z,31.53
2022-10-31T17:13:35.262Z,24.60
2022-10-31T17:16:03.293Z,64.28
2022-10-31T17:18:31.026Z,35.17
2022-10-31T17:20:59.871Z,52.27
2022-10-31T17:23:27.801Z,42.10
2022-10-31T17:25:55.004Z,30.07
2022-10-31T17:28:22.146Z,32.60
2022-10-31T17:30:49.278Z,41.63
2022-10-31T17:33:17.576Z,34.77
2022-10-31T17:35:44.984Z,36.73
2022-10-31T17:38:12.585Z,46.87
2022-10-31T17:40:41.606Z,67.40
2022-10-31T17:43:10.008Z,37.07
2022-10-31T17:45:38.936Z,40.33
2022-10-31T17:48:06.239Z,30.80
2022-10-31T17:50:33.455Z,51.10
2022-10-31T17:53:00.953Z,36.93
2022-10-31T17:55:31.474Z,42.10
2022-10-31T17:58:01.447Z,26.77
2022-10-31T18:00:28.543Z,39.50
2022-10-31T18:02:55.688Z,42.60
2022-10-31T18:05:22.827Z,38.90
2022-10-31T18:07:51.068Z,38.13
2022-10-31T18:10:18.221Z,34.58
2022-10-31T18:12:45.553Z,44.63
2022-10-31T18:15:12.776Z,25.63
2022-10-31T18:17:42.135Z,37.27
2022-10-31T18:20:10.205Z,28.70
2022-10-31T18:22:37.615Z,26.90
2022-10-31T18:25:04.949Z,49.70
2022-10-31T18:27:32.231Z,46.87
2022-10-31T18:29:59.357Z,96.27
2022-10-31T18:32:26.519Z,38.97
2022-10-31T18:34:53.857Z,36.80
2022-10-31T18:37:20.988Z,34.00
2022-10-31T18:39:48.136Z,41.20
2022-10-31T18:42:15.250Z,27.37
2022-10-31T18:44:42.350Z,29.57
2022-10-31T18:47:09.492Z,45.47
2022-10-31T18:49:36.738Z,28.73
2022-10-31T18:52:04.816Z,30.90
2022-10-31T18:54:31.945Z,43.50
2022-10-31T18:56:59.044Z,26.90
2022-10-31T18:59:26.161Z,37.90
2022-10-31T19:01:53.465Z,36.17
2022-10-31T19:04:20.765Z,38.17
2022-10-31T19:06:47.849Z,130.13
2022-10-31T19:09:14.952Z,36.53
2022-10-31T19:11:42.074Z,36.10
2022-10-31T19:14:10.970Z,64.30
2022-10-31T19:16:38.169Z,26.47
2022-10-31T19:19:05.388Z,34.93
2022-10-31T19:21:32.500Z,30.77
2022-10-31T19:24:00.286Z,27.77
2022-10-31T19:26:27.808Z,36.80
2022-10-31T19:28:55.760Z,69.20
2022-10-31T19:31:23.440Z,27.87
2022-10-31T19:33:50.677Z,39.60
2022-10-31T19:36:18.810Z,38.47
2022-10-31T19:38:47.017Z,46.00
2022-10-31T19:41:18.293Z,28.77
2022-10-31T19:43:45.523Z,27.27
2022-10-31T19:46:22.059Z,26.63
2022-10-31T19:48:49.688Z,26.57
2022-10-31T19:51:18.650Z,22.77
2022-10-31T19:53:46.190Z,23.13
2022-10-31T19:56:14.512Z,27.30
2022-10-31T19:58:42.078Z,26.33
2022-10-31T20:01:09.320Z,24.27
2022-10-31T20:03:38.786Z,24.17
2022-10-31T20:06:06.205Z,22.43
2022-10-31T20:08:39.700Z,24.20
2022-10-31T20:11:06.893Z,25.10
2022-10-31T20:13:34.498Z,22.10
2022-10-31T20:16:02.933Z,23.07
2022-10-31T20:18:30.450Z,22.50
2022-10-31T20:21:05.222Z,22.00
2022-10-31T20:23:32.992Z,22.87
2022-10-31T20:26:00.212Z,24.17
2022-10-31T20:28:27.791Z,23.10
2022-10-31T20:30:55.060Z,23.30
2022-10-31T20:33:22.306Z,22.03
2022-10-31T20:35:49.517Z,21.93
2022-10-31T20:38:16.723Z,22.90
2022-10-31T20:40:43.857Z,23.83
2022-10-31T20:43:12.009Z,22.93
2022-10-31T20:45:39.199Z,21.57
2022-10-31T20:48:06.452Z,21.63
2022-10-31T20:50:33.622Z,19.40
2022-10-31T20:53:01.667Z,22.70
2022-10-31T20:55:29.018Z,19.93
2022-10-31T20:57:56.182Z,23.30
2022-10-31T21:00:23.320Z,23.03
2022-10-31T21:02:50.442Z,23.63
2022-10-31T21:05:17.580Z,18.17
2022-10-31T21:07:44.739Z,24.43
2022-10-31T21:10:15.106Z,20.70
2022-10-31T21:12:43.282Z,17.47
2022-10-31T21:15:11.062Z,23.53
2022-10-31T21:17:38.413Z,19.57
2022-10-31T21:20:06.767Z,16.60
2022-10-31T21:22:34.260Z,16.40
2022-10-31T21:25:01.537Z,17.27
2022-10-31T21:27:28.730Z,20.90
2022-10-31T21:29:55.818Z,21.93
2022-10-31T21:32:23.025Z,24.97
2022-10-31T21:34:50.350Z,25.47
2022-10-31T21:37:17.534Z,22.20
2022-10-31T21:39:49.638Z,23.50
2022-10-31T21:42:21.315Z,24.43
2022-10-31T21:44:49.063Z,22.50
2022-10-31T21:47:16.243Z,18.90
2022-10-31T21:49:43.402Z,23.47
2022-10-31T21:52:10.700Z,18.70
2022-10-31T21:54:37.822Z,21.13
2022-10-31T21:57:04.995Z,23.33
2022-10-31T21:59:32.108Z,19.20
2022-10-31T22:02:00.847Z,23.87
2022-10-31T22:04:28.876Z,20.47
2022-10-31T22:06:55.999Z,18.40
2022-10-31T22:09:23.757Z,19.17
2022-10-31T22:11:50.880Z,19.63
2022-10-31T22:14:18.121Z,18.77
2022-10-31T22:16:45.278Z,16.90
2022-10-31T22:19:13.343Z,19.50
2022-10-31T22:21:42.415Z,17.37
2022-10-31T22:24:10.317Z,19.53
2022-10-31T22:26:38.317Z,19.93
2022-10-31T22:29:07.320Z,18.90
2022-10-31T22:31:38.126Z,16.07
2022-10-31T22:34:05.319Z,20.33
2022-10-31T22:36:32.611Z,21.23
2022-10-31T22:39:00.078Z,21.17
2022-10-31T22:41:28.839Z,16.07
2022-10-31T22:43:56.323Z,19.83
2022-10-31T22:46:24.814Z,19.43
2022-10-31T22:48:53.261Z,16.13
2022-10-31T22:51:27.827Z,14.53
2022-10-31T22:53:58.410Z,18.13
2022-10-31T22:56:29.905Z,17.57
2022-10-31T22:58:57.093Z,18.90
2022-10-31T23:01:25.610Z,19.40
2022-10-31T23:03:52.997Z,17.33
2022-10-31T23:06:21.372Z,17.37
2022-10-31T23:08:48.897Z,17.90
2022-10-31T23:11:19.080Z,19.03
2022-10-31T23:14:09.237Z,16.90
2022-10-31T23:16:37.521Z,17.43
2022-10-31T23:19:18.148Z,18.20
2022-10-31T23:21:57.106Z,16.70
2022-10-31T23:24:24.887Z,18.50
2022-10-31T23:27:05.745Z,16.90
2022-10-31T23:29:33.283Z,19.77
2022-10-31T23:32:00.771Z,17.07
2022-10-31T23:34:28.196Z,17.30
2022-10-31T23:36:55.408Z,17.40
2022-10-31T23:39:25.111Z,19.13
2022-10-31T23:41:52.493Z,18.67
2022-10-31T23:44:19.658Z,19.27
2022-10-31T23:46:46.750Z,21.03
2022-10-31T23:49:13.918Z,20.03
2022-10-31T23:51:41.194Z,20.30
2022-10-31T23:54:08.445Z,16.20
2022-10-31T23:56:35.765Z,18.97
2022-10-31T23:59:03.146Z,19.80
